sensor_id;sensor_type;location;lat;lon;timestamp;temperature;humidity
11221;DHT22;8517;53.546;10.104;2023-02-03T00:00:10;6.90;99.90
11221;DHT22;8517;53.546;10.104;2023-02-03T00:02:37;6.80;99.90
11221;DHT22;8517;53.546;10.104;2023-02-03T00:05:04;6.90;99.90
11221;DHT22;8517;53.546;10.104;2023-02-03T00:07:31;6.90;99.90
11221;DHT22;8517;53.546;10.104;2023-02-03T00:09:59;6.90;99.90
11221;DHT22;8517;53.546;10.104;2023-02-03T00:12:26;6.90;99.90
11221;DHT22;8517;53.546;10.104;2023-02-03T00:14:53;6.90;99.90
11221;DHT22;8517;53.546;10.104;2023-02-03T00:17:21;7.00;99.90
11221;DHT22;8517;53.546;10.104;2023-02-03T00:19:48;7.00;99.90
11221;DHT22;8517;53.546;10.104;2023-02-03T00:22:15;7.00;99.90
11221;DHT22;8517;53.546;10.104;2023-02-03T00:24:41;7.10;99.90
11221;DHT22;8517;53.546;10.104;2023-02-03T00:27:36;7.10;99.90
11221;DHT22;8517;53.546;10.104;2023-02-03T00:30:19;7.20;99.90
11221;DHT22;8517;53.546;10.104;2023-02-03T00:32:48;7.20;99.90
11221;DHT22;8517;53.546;10.104;2023-02-03T00:35:15;7.20;99.90
11221;DHT22;8517;53.546;10.104;2023-02-03T00:37:41;7.30;99.90
11221;DHT22;8517;53.546;10.104;2023-02-03T00:40:10;7.40;99.90
11221;DHT22;8517;53.546;10.104;2023-02-03T00:42:36;7.50;99.90
11221;DHT22;8517;53.546;10.104;2023-02-03T00:45:04;7.60;99.90
11221;DHT22;8517;53.546;10.104;2023-02-03T00:47:31;7.70;99.90
11221;DHT22;8517;53.546;10.104;2023-02-03T00:49:59;7.80;99.90
11221;DHT22;8517;53.546;10.104;2023-02-03T00:52:26;7.90;99.90
11221;DHT22;8517;53.546;10.104;2023-02-03T00:54:52;8.00;99.90
11221;DHT22;8517;53.546;10.104;2023-02-03T00:57:19;8.20;99.90
11221;DHT22;8517;53.546;10.104;2023-02-03T00:59:46;8.30;99.90
11221;DHT22;8517;53.546;10.104;2023-02-03T01:02:13;8.30;99.90
11221;DHT22;8517;53.546;10.104;2023-02-03T01:04:41;8.50;99.90
11221;DHT22;8517;53.546;10.104;2023-02-03T01:07:09;8.60;99.90
11221;DHT22;8517;53.546;10.104;2023-02-03T01:09:36;8.70;99.90
11221;DHT22;8517;53.546;10.104;2023-02-03T01:12:04;8.70;99.90
11221;DHT22;8517;53.546;10.104;2023-02-03T01:14:31;8.80;99.90
11221;DHT22;8517;53.546;10.104;2023-02-03T01:16:57;8.90;99.90
11221;DHT22;8517;53.546;10.104;2023-02-03T01:19:24;8.90;99.90
11221;DHT22;8517;53.546;10.104;2023-02-03T01:21:51;9.00;99.90
11221;DHT22;8517;53.546;10.104;2023-02-03T01:24:20;9.10;99.90
11221;DHT22;8517;53.546;10.104;2023-02-03T01:26:46;9.10;99.90
11221;DHT22;8517;53.546;10.104;2023-02-03T01:29:13;9.20;99.90
11221;DHT22;8517;53.546;10.104;2023-02-03T01:31:41;9.20;99.90
11221;DHT22;8517;53.546;10.104;2023-02-03T01:34:11;9.30;99.90
11221;DHT22;8517;53.546;10.104;2023-02-03T01:36:38;9.30;99.90
11221;DHT22;8517;53.546;10.104;2023-02-03T01:39:05;9.40;99.90
11221;DHT22;8517;53.546;10.104;2023-02-03T01:41:36;9.40;99.90
11221;DHT22;8517;53.546;10.104;2023-02-03T01:50:07;9.50;99.90
11221;DHT22;8517;53.546;10.104;2023-02-03T01:52:36;9.50;99.90
11221;DHT22;8517;53.546;10.104;2023-02-03T01:55:08;9.60;99.90
11221;DHT22;8517;53.546;10.104;2023-02-03T01:57:39;9.60;99.90
11221;DHT22;8517;53.546;10.104;2023-02-03T02:00:10;9.60;99.90
11221;DHT22;8517;53.546;10.104;2023-02-03T02:02:37;9.60;99.90
11221;DHT22;8517;53.546;10.104;2023-02-03T02:05:07;9.60;99.90
11221;DHT22;8517;53.546;10.104;2023-02-03T02:07:36;9.60;99.90
11221;DHT22;8517;53.546;10.104;2023-02-03T02:10:06;9.70;99.90
11221;DHT22;8517;53.546;10.104;2023-02-03T02:12:33;9.70;99.90
11221;DHT22;8517;53.546;10.104;2023-02-03T02:15:01;9.70;99.90
11221;DHT22;8517;53.546;10.104;2023-02-03T02:17:51;9.70;99.90
11221;DHT22;8517;53.546;10.104;2023-02-03T02:20:46;9.70;99.90
11221;DHT22;8517;53.546;10.104;2023-02-03T02:26:50;9.80;99.90
11221;DHT22;8517;53.546;10.104;2023-02-03T02:29:39;9.80;99.90
11221;DHT22;8517;53.546;10.104;2023-02-03T02:32:19;9.70;99.90
11221;DHT22;8517;53.546;10.104;2023-02-03T02:34:56;9.80;99.90
11221;DHT22;8517;53.546;10.104;2023-02-03T02:37:34;9.80;99.90
11221;DHT22;8517;53.546;10.104;2023-02-03T02:40:08;9.80;99.90
11221;DHT22;8517;53.546;10.104;2023-02-03T02:42:42;9.80;99.90
11221;DHT22;8517;53.546;10.104;2023-02-03T02:45:15;9.80;99.90
11221;DHT22;8517;53.546;10.104;2023-02-03T02:47:44;9.80;99.90
11221;DHT22;8517;53.546;10.104;2023-02-03T02:50:13;9.80;99.90
11221;DHT22;8517;53.546;10.104;2023-02-03T02:52:45;9.80;99.90
11221;DHT22;8517;53.546;10.104;2023-02-03T02:55:16;9.80;99.90
11221;DHT22;8517;53.546;10.104;2023-02-03T02:57:45;9.80;99.90
11221;DHT22;8517;53.546;10.104;2023-02-03T03:00:13;9.80;99.90
11221;DHT22;8517;53.546;10.104;2023-02-03T03:02:40;9.90;99.90
11221;DHT22;8517;53.546;10.104;2023-02-03T03:05:09;9.90;99.90
11221;DHT22;8517;53.546;10.104;2023-02-03T03:07:41;9.90;99.90
11221;DHT22;8517;53.546;10.104;2023-02-03T03:10:13;9.90;99.90
11221;DHT22;8517;53.546;10.104;2023-02-03T03:12:45;9.90;99.90
11221;DHT22;8517;53.546;10.104;2023-02-03T03:15:18;9.90;99.90
11221;DHT22;8517;53.546;10.104;2023-02-03T03:17:50;9.90;99.90
11221;DHT22;8517;53.546;10.104;2023-02-03T03:20:24;9.90;99.90
11221;DHT22;8517;53.546;10.104;2023-02-03T03:22:55;9.90;99.90
11221;DHT22;8517;53.546;10.104;2023-02-03T03:25:27;9.90;99.90
11221;DHT22;8517;53.546;10.104;2023-02-03T03:27:58;10.00;99.90
11221;DHT22;8517;53.546;10.104;2023-02-03T03:30:31;10.00;99.90
11221;DHT22;8517;53.546;10.104;2023-02-03T03:32:58;10.00;99.90
11221;DHT22;8517;53.546;10.104;2023-02-03T03:35:31;10.00;99.90
11221;DHT22;8517;53.546;10.104;2023-02-03T03:38:07;10.00;99.90
11221;DHT22;8517;53.546;10.104;2023-02-03T03:40:38;10.00;99.90
11221;DHT22;8517;53.546;10.104;2023-02-03T03:43:11;10.00;99.90
11221;DHT22;8517;53.546;10.104;2023-02-03T03:45:43;10.00;99.90
11221;DHT22;8517;53.546;10.104;2023-02-03T03:48:15;10.10;99.90
11221;DHT22;8517;53.546;10.104;2023-02-03T03:50:47;10.00;99.90
11221;DHT22;8517;53.546;10.104;2023-02-03T03:53:16;10.10;99.90
11221;DHT22;8517;53.546;10.104;2023-02-03T03:55:47;10.10;99.90
11221;DHT22;8517;53.546;10.104;2023-02-03T03:58:18;10.10;99.90
11221;DHT22;8517;53.546;10.104;2023-02-03T04:00:47;10.10;99.90
11221;DHT22;8517;53.546;10.104;2023-02-03T04:03:16;10.10;99.90
11221;DHT22;8517;53.546;10.104;2023-02-03T04:05:45;10.10;99.90
11221;DHT22;8517;53.546;10.104;2023-02-03T04:08:12;10.10;99.90
11221;DHT22;8517;53.546;10.104;2023-02-03T04:10:40;10.10;99.90
11221;DHT22;8517;53.546;10.104;2023-02-03T04:13:08;10.10;99.90
11221;DHT22;8517;53.546;10.104;2023-02-03T04:15:35;10.00;99.90
11221;DHT22;8517;53.546;10.104;2023-02-03T04:18:03;10.00;99.90
11221;DHT22;8517;53.546;10.104;2023-02-03T04:20:31;10.00;99.90
11221;DHT22;8517;53.546;10.104;2023-02-03T04:22:59;10.00;99.90
11221;DHT22;8517;53.546;10.104;2023-02-03T04:25:26;10.00;99.90
11221;DHT22;8517;53.546;10.104;2023-02-03T04:27:53;10.00;99.90
11221;DHT22;8517;53.546;10.104;2023-02-03T04:30:20;10.00;99.90
11221;DHT22;8517;53.546;10.104;2023-02-03T04:32:47;9.90;99.90
11221;DHT22;8517;53.546;10.104;2023-02-03T04:35:14;9.90;99.90
11221;DHT22;8517;53.546;10.104;2023-02-03T04:37:41;9.90;99.90
11221;DHT22;8517;53.546;10.104;2023-02-03T04:40:10;9.90;99.90
11221;DHT22;8517;53.546;10.104;2023-02-03T04:42:38;9.90;99.90
11221;DHT22;8517;53.546;10.104;2023-02-03T04:45:06;9.90;99.90
11221;DHT22;8517;53.546;10.104;2023-02-03T04:47:34;9.90;99.90
11221;DHT22;8517;53.546;10.104;2023-02-03T04:50:01;9.90;99.90
11221;DHT22;8517;53.546;10.104;2023-02-03T04:52:28;9.80;99.90
11221;DHT22;8517;53.546;10.104;2023-02-03T04:54:54;9.90;99.90
11221;DHT22;8517;53.546;10.104;2023-02-03T04:57:22;9.80;99.90
11221;DHT22;8517;53.546;10.104;2023-02-03T04:59:49;9.80;99.90
11221;DHT22;8517;53.546;10.104;2023-02-03T05:02:16;9.80;99.90
11221;DHT22;8517;53.546;10.104;2023-02-03T05:04:43;9.90;99.90
11221;DHT22;8517;53.546;10.104;2023-02-03T05:07:10;9.90;99.90
11221;DHT22;8517;53.546;10.104;2023-02-03T05:09:37;9.90;99.90
11221;DHT22;8517;53.546;10.104;2023-02-03T05:12:04;9.80;99.90
11221;DHT22;8517;53.546;10.104;2023-02-03T05:14:32;9.90;99.90
11221;DHT22;8517;53.546;10.104;2023-02-03T05:16:59;9.80;99.90
11221;DHT22;8517;53.546;10.104;2023-02-03T05:19:26;9.80;99.90
11221;DHT22;8517;53.546;10.104;2023-02-03T05:21:52;9.80;99.90
11221;DHT22;8517;53.546;10.104;2023-02-03T05:24:19;9.80;99.90
11221;DHT22;8517;53.546;10.104;2023-02-03T05:26:46;9.80;99.90
11221;DHT22;8517;53.546;10.104;2023-02-03T05:29:13;9.80;99.90
11221;DHT22;8517;53.546;10.104;2023-02-03T05:31:41;9.80;99.90
11221;DHT22;8517;53.546;10.104;2023-02-03T05:34:08;9.80;99.90
11221;DHT22;8517;53.546;10.104;2023-02-03T05:36:35;9.80;99.90
11221;DHT22;8517;53.546;10.104;2023-02-03T05:39:01;9.80;99.90
11221;DHT22;8517;53.546;10.104;2023-02-03T05:41:28;9.80;99.90
11221;DHT22;8517;53.546;10.104;2023-02-03T05:44:12;9.80;99.90
11221;DHT22;8517;53.546;10.104;2023-02-03T05:46:41;9.80;99.90
11221;DHT22;8517;53.546;10.104;2023-02-03T05:49:07;9.80;99.90
11221;DHT22;8517;53.546;10.104;2023-02-03T05:51:34;9.80;99.90
11221;DHT22;8517;53.546;10.104;2023-02-03T05:54:01;9.80;99.90
11221;DHT22;8517;53.546;10.104;2023-02-03T05:56:28;9.80;99.90
11221;DHT22;8517;53.546;10.104;2023-02-03T05:58:55;9.80;99.90
11221;DHT22;8517;53.546;10.104;2023-02-03T06:01:22;9.80;99.90
11221;DHT22;8517;53.546;10.104;2023-02-03T06:03:54;9.80;99.90
11221;DHT22;8517;53.546;10.104;2023-02-03T06:06:21;9.90;99.90
11221;DHT22;8517;53.546;10.104;2023-02-03T06:08:48;9.90;99.90
11221;DHT22;8517;53.546;10.104;2023-02-03T06:11:17;9.90;99.90
11221;DHT22;8517;53.546;10.104;2023-02-03T06:13:43;9.90;99.90
11221;DHT22;8517;53.546;10.104;2023-02-03T06:16:10;9.90;99.90
11221;DHT22;8517;53.546;10.104;2023-02-03T06:18:37;9.90;99.90
11221;DHT22;8517;53.546;10.104;2023-02-03T06:21:05;9.80;99.90
11221;DHT22;8517;53.546;10.104;2023-02-03T06:23:32;9.80;99.90
11221;DHT22;8517;53.546;10.104;2023-02-03T06:25:59;9.90;99.90
11221;DHT22;8517;53.546;10.104;2023-02-03T06:28:26;9.80;99.90
11221;DHT22;8517;53.546;10.104;2023-02-03T06:30:54;9.80;99.90
11221;DHT22;8517;53.546;10.104;2023-02-03T06:33:21;9.80;99.90
11221;DHT22;8517;53.546;10.104;2023-02-03T06:39:22;9.80;99.90
11221;DHT22;8517;53.546;10.104;2023-02-03T06:41:49;9.80;99.90
11221;DHT22;8517;53.546;10.104;2023-02-03T06:44:16;9.80;99.90
11221;DHT22;8517;53.546;10.104;2023-02-03T06:46:43;9.80;99.90
11221;DHT22;8517;53.546;10.104;2023-02-03T06:49:10;9.80;99.90
11221;DHT22;8517;53.546;10.104;2023-02-03T06:51:45;9.80;99.90
11221;DHT22;8517;53.546;10.104;2023-02-03T06:58:34;9.90;99.90
11221;DHT22;8517;53.546;10.104;2023-02-03T07:01:00;9.90;99.90
11221;DHT22;8517;53.546;10.104;2023-02-03T07:03:48;9.90;99.90
11221;DHT22;8517;53.546;10.104;2023-02-03T07:06:38;9.90;99.90
11221;DHT22;8517;53.546;10.104;2023-02-03T07:09:07;10.00;99.90
11221;DHT22;8517;53.546;10.104;2023-02-03T07:11:34;10.00;99.90
11221;DHT22;8517;53.546;10.104;2023-02-03T07:14:04;10.00;99.90
11221;DHT22;8517;53.546;10.104;2023-02-03T07:16:31;10.00;99.90
11221;DHT22;8517;53.546;10.104;2023-02-03T07:19:01;10.10;99.90
11221;DHT22;8517;53.546;10.104;2023-02-03T07:21:28;10.00;99.90
11221;DHT22;8517;53.546;10.104;2023-02-03T07:23:55;10.00;99.90
11221;DHT22;8517;53.546;10.104;2023-02-03T07:26:36;10.00;99.90
11221;DHT22;8517;53.546;10.104;2023-02-03T07:29:05;10.10;99.90
11221;DHT22;8517;53.546;10.104;2023-02-03T07:31:32;10.10;99.90
11221;DHT22;8517;53.546;10.104;2023-02-03T07:34:03;10.10;99.90
11221;DHT22;8517;53.546;10.104;2023-02-03T07:36:30;10.10;99.90
11221;DHT22;8517;53.546;10.104;2023-02-03T07:38:57;10.10;99.90
11221;DHT22;8517;53.546;10.104;2023-02-03T07:41:24;10.10;99.90
11221;DHT22;8517;53.546;10.104;2023-02-03T07:43:51;10.10;99.90
11221;DHT22;8517;53.546;10.104;2023-02-03T07:46:28;10.10;99.90
11221;DHT22;8517;53.546;10.104;2023-02-03T07:48:55;10.10;99.90
11221;DHT22;8517;53.546;10.104;2023-02-03T07:51:22;10.10;99.90
11221;DHT22;8517;53.546;10.104;2023-02-03T07:53:49;10.20;99.90
11221;DHT22;8517;53.546;10.104;2023-02-03T07:56:16;10.20;99.90
11221;DHT22;8517;53.546;10.104;2023-02-03T07:58:55;10.20;99.90
11221;DHT22;8517;53.546;10.104;2023-02-03T08:01:32;10.20;99.90
11221;DHT22;8517;53.546;10.104;2023-02-03T08:03:59;10.20;99.90
11221;DHT22;8517;53.546;10.104;2023-02-03T08:06:29;10.20;99.90
11221;DHT22;8517;53.546;10.104;2023-02-03T08:08:56;10.30;99.90
11221;DHT22;8517;53.546;10.104;2023-02-03T08:11:23;10.30;99.90
11221;DHT22;8517;53.546;10.104;2023-02-03T08:13:50;10.30;99.90
11221;DHT22;8517;53.546;10.104;2023-02-03T08:16:17;10.30;99.90
11221;DHT22;8517;53.546;10.104;2023-02-03T08:18:45;10.40;99.90
11221;DHT22;8517;53.546;10.104;2023-02-03T08:21:12;10.40;99.90
11221;DHT22;8517;53.546;10.104;2023-02-03T08:23:39;10.40;99.90
11221;DHT22;8517;53.546;10.104;2023-02-03T08:26:06;10.30;99.90
11221;DHT22;8517;53.546;10.104;2023-02-03T08:28:32;10.20;99.90
11221;DHT22;8517;53.546;10.104;2023-02-03T08:30:59;10.20;99.90
11221;DHT22;8517;53.546;10.104;2023-02-03T08:33:26;10.10;99.90
11221;DHT22;8517;53.546;10.104;2023-02-03T08:35:56;10.10;99.90
11221;DHT22;8517;53.546;10.104;2023-02-03T08:38:25;10.10;99.90
11221;DHT22;8517;53.546;10.104;2023-02-03T08:40:52;10.10;99.90
11221;DHT22;8517;53.546;10.104;2023-02-03T08:43:19;10.10;99.90
11221;DHT22;8517;53.546;10.104;2023-02-03T08:45:46;10.10;99.90
11221;DHT22;8517;53.546;10.104;2023-02-03T08:48:13;10.10;99.90
11221;DHT22;8517;53.546;10.104;2023-02-03T08:50:41;10.00;99.90
11221;DHT22;8517;53.546;10.104;2023-02-03T08:53:17;10.10;99.90
11221;DHT22;8517;53.546;10.104;2023-02-03T08:55:44;10.10;99.90
11221;DHT22;8517;53.546;10.104;2023-02-03T08:58:11;10.10;99.90
11221;DHT22;8517;53.546;10.104;2023-02-03T09:00:39;10.10;99.90
11221;DHT22;8517;53.546;10.104;2023-02-03T09:03:12;10.10;99.90
11221;DHT22;8517;53.546;10.104;2023-02-03T09:06:00;10.20;99.90
11221;DHT22;8517;53.546;10.104;2023-02-03T09:08:28;10.20;99.90
11221;DHT22;8517;53.546;10.104;2023-02-03T09:10:56;10.20;99.90
11221;DHT22;8517;53.546;10.104;2023-02-03T09:13:23;10.10;99.90
11221;DHT22;8517;53.546;10.104;2023-02-03T09:15:49;10.20;99.90
11221;DHT22;8517;53.546;10.104;2023-02-03T09:18:16;10.20;99.90
11221;DHT22;8517;53.546;10.104;2023-02-03T09:20:43;10.20;99.90
11221;DHT22;8517;53.546;10.104;2023-02-03T09:23:13;10.20;99.90
11221;DHT22;8517;53.546;10.104;2023-02-03T09:25:41;10.20;99.90
11221;DHT22;8517;53.546;10.104;2023-02-03T09:31:21;10.20;99.90
11221;DHT22;8517;53.546;10.104;2023-02-03T09:33:48;10.30;99.90
11221;DHT22;8517;53.546;10.104;2023-02-03T09:43:16;10.40;99.90
11221;DHT22;8517;53.546;10.104;2023-02-03T09:45:48;10.40;99.90
11221;DHT22;8517;53.546;10.104;2023-02-03T09:48:19;10.40;99.90
11221;DHT22;8517;53.546;10.104;2023-02-03T09:51:01;10.50;99.90
11221;DHT22;8517;53.546;10.104;2023-02-03T09:53:32;10.50;99.90
11221;DHT22;8517;53.546;10.104;2023-02-03T09:56:01;10.50;99.90
11221;DHT22;8517;53.546;10.104;2023-02-03T09:58:50;10.50;99.90
11221;DHT22;8517;53.546;10.104;2023-02-03T10:01:41;10.50;99.90
11221;DHT22;8517;53.546;10.104;2023-02-03T10:04:21;10.60;99.90
11221;DHT22;8517;53.546;10.104;2023-02-03T10:06:57;10.60;99.90
11221;DHT22;8517;53.546;10.104;2023-02-03T10:09:37;10.70;99.90
11221;DHT22;8517;53.546;10.104;2023-02-03T10:12:38;10.70;99.90
11221;DHT22;8517;53.546;10.104;2023-02-03T10:15:26;10.70;99.90
11221;DHT22;8517;53.546;10.104;2023-02-03T10:18:22;10.80;99.90
11221;DHT22;8517;53.546;10.104;2023-02-03T10:21:01;10.80;99.90
11221;DHT22;8517;53.546;10.104;2023-02-03T10:23:38;10.90;99.90
11221;DHT22;8517;53.546;10.104;2023-02-03T10:26:13;10.90;99.90
11221;DHT22;8517;53.546;10.104;2023-02-03T10:28:48;10.90;99.90
11221;DHT22;8517;53.546;10.104;2023-02-03T10:31:20;10.90;99.90
11221;DHT22;8517;53.546;10.104;2023-02-03T10:34:12;11.00;99.90
11221;DHT22;8517;53.546;10.104;2023-02-03T10:36:56;11.00;99.90
11221;DHT22;8517;53.546;10.104;2023-02-03T10:39:30;11.00;99.90
11221;DHT22;8517;53.546;10.104;2023-02-03T10:42:05;11.00;99.90
11221;DHT22;8517;53.546;10.104;2023-02-03T10:45:00;11.00;99.90
11221;DHT22;8517;53.546;10.104;2023-02-03T10:47:33;11.00;99.90
11221;DHT22;8517;53.546;10.104;2023-02-03T10:50:18;11.00;99.90
11221;DHT22;8517;53.546;10.104;2023-02-03T10:52:45;11.10;99.90
11221;DHT22;8517;53.546;10.104;2023-02-03T10:55:37;11.00;99.90
11221;DHT22;8517;53.546;10.104;2023-02-03T10:58:14;11.00;99.90
11221;DHT22;8517;53.546;10.104;2023-02-03T11:00:42;11.00;99.90
11221;DHT22;8517;53.546;10.104;2023-02-03T11:03:20;11.00;99.90
11221;DHT22;8517;53.546;10.104;2023-02-03T11:06:02;11.00;99.90
11221;DHT22;8517;53.546;10.104;2023-02-03T11:08:31;11.00;99.90
11221;DHT22;8517;53.546;10.104;2023-02-03T11:11:01;11.10;99.90
11221;DHT22;8517;53.546;10.104;2023-02-03T11:13:29;11.20;99.90
11221;DHT22;8517;53.546;10.104;2023-02-03T11:16:02;11.30;99.90
11221;DHT22;8517;53.546;10.104;2023-02-03T11:18:41;11.40;99.90
11221;DHT22;8517;53.546;10.104;2023-02-03T11:21:45;11.40;99.90
11221;DHT22;8517;53.546;10.104;2023-02-03T11:24:17;11.50;99.90
11221;DHT22;8517;53.546;10.104;2023-02-03T11:26:51;11.50;99.90
11221;DHT22;8517;53.546;10.104;2023-02-03T11:29:22;11.60;99.90
11221;DHT22;8517;53.546;10.104;2023-02-03T11:32:06;11.60;99.90
11221;DHT22;8517;53.546;10.104;2023-02-03T11:35:16;11.60;99.90
11221;DHT22;8517;53.546;10.104;2023-02-03T11:37:54;11.80;99.90
11221;DHT22;8517;53.546;10.104;2023-02-03T11:40:24;11.80;99.90
11221;DHT22;8517;53.546;10.104;2023-02-03T11:43:04;11.70;99.90
11221;DHT22;8517;53.546;10.104;2023-02-03T11:45:36;11.80;99.90
11221;DHT22;8517;53.546;10.104;2023-02-03T11:48:18;11.80;99.90
11221;DHT22;8517;53.546;10.104;2023-02-03T11:50:59;11.80;99.90
11221;DHT22;8517;53.546;10.104;2023-02-03T11:54:05;11.80;99.90
11221;DHT22;8517;53.546;10.104;2023-02-03T11:56:58;11.90;99.90
11221;DHT22;8517;53.546;10.104;2023-02-03T11:59:39;11.90;99.90
11221;DHT22;8517;53.546;10.104;2023-02-03T12:02:30;11.90;99.90
11221;DHT22;8517;53.546;10.104;2023-02-03T12:05:28;11.90;99.90
11221;DHT22;8517;53.546;10.104;2023-02-03T12:11:29;11.80;99.90
11221;DHT22;8517;53.546;10.104;2023-02-03T12:14:14;11.80;99.90
11221;DHT22;8517;53.546;10.104;2023-02-03T12:19:54;11.80;99.90
11221;DHT22;8517;53.546;10.104;2023-02-03T12:22:41;11.80;99.90
11221;DHT22;8517;53.546;10.104;2023-02-03T12:25:29;11.80;99.90
11221;DHT22;8517;53.546;10.104;2023-02-03T12:31:38;11.80;99.90
11221;DHT22;8517;53.546;10.104;2023-02-03T12:34:14;11.80;99.90
11221;DHT22;8517;53.546;10.104;2023-02-03T12:39:50;11.80;99.90
11221;DHT22;8517;53.546;10.104;2023-02-03T12:42:45;11.80;99.90
11221;DHT22;8517;53.546;10.104;2023-02-03T12:45:21;11.70;99.90
11221;DHT22;8517;53.546;10.104;2023-02-03T12:47:53;11.70;99.90
11221;DHT22;8517;53.546;10.104;2023-02-03T12:50:22;11.70;99.90
11221;DHT22;8517;53.546;10.104;2023-02-03T12:53:04;11.60;99.90
11221;DHT22;8517;53.546;10.104;2023-02-03T12:56:02;11.60;99.90
11221;DHT22;8517;53.546;10.104;2023-02-03T12:58:38;11.50;99.90
11221;DHT22;8517;53.546;10.104;2023-02-03T13:01:12;11.50;99.90
11221;DHT22;8517;53.546;10.104;2023-02-03T13:04:09;11.40;99.90
11221;DHT22;8517;53.546;10.104;2023-02-03T13:10:13;11.40;99.90
11221;DHT22;8517;53.546;10.104;2023-02-03T13:12:44;11.30;99.90
11221;DHT22;8517;53.546;10.104;2023-02-03T13:15:21;11.30;99.90
11221;DHT22;8517;53.546;10.104;2023-02-03T13:17:58;11.30;99.90
11221;DHT22;8517;53.546;10.104;2023-02-03T13:20:28;11.20;99.90
11221;DHT22;8517;53.546;10.104;2023-02-03T13:22:56;11.20;99.90
11221;DHT22;8517;53.546;10.104;2023-02-03T13:25:34;11.10;99.90
11221;DHT22;8517;53.546;10.104;2023-02-03T13:28:13;11.10;99.90
11221;DHT22;8517;53.546;10.104;2023-02-03T13:30:51;11.10;99.90
11221;DHT22;8517;53.546;10.104;2023-02-03T13:33:52;11.10;99.90
11221;DHT22;8517;53.546;10.104;2023-02-03T13:36:46;11.00;99.90
11221;DHT22;8517;53.546;10.104;2023-02-03T13:39:32;11.00;99.90
11221;DHT22;8517;53.546;10.104;2023-02-03T13:42:18;11.00;99.90
11221;DHT22;8517;53.546;10.104;2023-02-03T13:44:49;11.00;99.90
11221;DHT22;8517;53.546;10.104;2023-02-03T13:47:22;10.90;99.90
11221;DHT22;8517;53.546;10.104;2023-02-03T13:49:56;10.90;99.90
11221;DHT22;8517;53.546;10.104;2023-02-03T13:52:29;10.90;99.90
11221;DHT22;8517;53.546;10.104;2023-02-03T13:54:59;10.90;99.90
11221;DHT22;8517;53.546;10.104;2023-02-03T13:57:31;10.90;99.90
11221;DHT22;8517;53.546;10.104;2023-02-03T14:00:00;10.90;99.90
11221;DHT22;8517;53.546;10.104;2023-02-03T14:02:52;10.90;99.90
11221;DHT22;8517;53.546;10.104;2023-02-03T14:05:43;10.90;99.90
11221;DHT22;8517;53.546;10.104;2023-02-03T14:08:47;10.90;99.90
11221;DHT22;8517;53.546;10.104;2023-02-03T14:11:38;10.90;99.90
11221;DHT22;8517;53.546;10.104;2023-02-03T14:17:17;10.80;99.90
11221;DHT22;8517;53.546;10.104;2023-02-03T14:23:32;10.80;99.90
11221;DHT22;8517;53.546;10.104;2023-02-03T14:26:00;10.80;99.90
11221;DHT22;8517;53.546;10.104;2023-02-03T14:28:37;10.80;99.90
11221;DHT22;8517;53.546;10.104;2023-02-03T14:31:18;10.80;99.90
11221;DHT22;8517;53.546;10.104;2023-02-03T14:33:53;10.70;99.90
11221;DHT22;8517;53.546;10.104;2023-02-03T14:36:33;10.70;99.90
11221;DHT22;8517;53.546;10.104;2023-02-03T14:39:04;10.70;99.90
11221;DHT22;8517;53.546;10.104;2023-02-03T14:41:53;10.70;99.90
11221;DHT22;8517;53.546;10.104;2023-02-03T14:44:30;10.70;99.90
11221;DHT22;8517;53.546;10.104;2023-02-03T14:47:09;10.70;99.90
11221;DHT22;8517;53.546;10.104;2023-02-03T14:50:01;10.70;99.90
11221;DHT22;8517;53.546;10.104;2023-02-03T14:52:47;10.60;99.90
11221;DHT22;8517;53.546;10.104;2023-02-03T14:55:26;10.60;99.90
11221;DHT22;8517;53.546;10.104;2023-02-03T14:57:59;10.60;99.90
11221;DHT22;8517;53.546;10.104;2023-02-03T15:00:30;10.60;99.90
11221;DHT22;8517;53.546;10.104;2023-02-03T15:03:17;10.50;99.90
11221;DHT22;8517;53.546;10.104;2023-02-03T15:05:48;10.50;99.90
11221;DHT22;8517;53.546;10.104;2023-02-03T15:08:41;10.50;99.90
11221;DHT22;8517;53.546;10.104;2023-02-03T15:11:26;10.50;99.90
11221;DHT22;8517;53.546;10.104;2023-02-03T15:13:53;10.50;99.90
11221;DHT22;8517;53.546;10.104;2023-02-03T15:16:22;10.50;99.90
11221;DHT22;8517;53.546;10.104;2023-02-03T15:18:56;10.50;99.90
11221;DHT22;8517;53.546;10.104;2023-02-03T15:21:24;10.50;99.90
11221;DHT22;8517;53.546;10.104;2023-02-03T15:23:52;10.50;99.90
11221;DHT22;8517;53.546;10.104;2023-02-03T15:26:20;10.50;99.90
11221;DHT22;8517;53.546;10.104;2023-02-03T15:29:00;10.50;99.90
11221;DHT22;8517;53.546;10.104;2023-02-03T15:31:30;10.50;99.90
11221;DHT22;8517;53.546;10.104;2023-02-03T15:34:05;10.50;99.90
11221;DHT22;8517;53.546;10.104;2023-02-03T15:36:39;10.50;99.90
11221;DHT22;8517;53.546;10.104;2023-02-03T15:39:18;10.50;99.90
11221;DHT22;8517;53.546;10.104;2023-02-03T15:41:47;10.50;99.90
11221;DHT22;8517;53.546;10.104;2023-02-03T15:44:23;10.50;99.90
11221;DHT22;8517;53.546;10.104;2023-02-03T15:46:52;10.50;99.90
11221;DHT22;8517;53.546;10.104;2023-02-03T15:49:21;10.40;99.90
11221;DHT22;8517;53.546;10.104;2023-02-03T15:51:53;10.40;99.90
11221;DHT22;8517;53.546;10.104;2023-02-03T15:54:24;10.40;99.90
11221;DHT22;8517;53.546;10.104;2023-02-03T15:56:56;10.50;99.90
11221;DHT22;8517;53.546;10.104;2023-02-03T15:59:30;10.40;99.90
11221;DHT22;8517;53.546;10.104;2023-02-03T16:01:58;10.40;99.90
11221;DHT22;8517;53.546;10.104;2023-02-03T16:04:26;10.40;99.90
11221;DHT22;8517;53.546;10.104;2023-02-03T16:06:54;10.40;99.90
11221;DHT22;8517;53.546;10.104;2023-02-03T16:09:27;10.40;99.90
11221;DHT22;8517;53.546;10.104;2023-02-03T16:12:02;10.40;99.90
11221;DHT22;8517;53.546;10.104;2023-02-03T16:14:35;10.40;99.90
11221;DHT22;8517;53.546;10.104;2023-02-03T16:17:02;10.40;99.90
11221;DHT22;8517;53.546;10.104;2023-02-03T16:19:30;10.40;99.90
11221;DHT22;8517;53.546;10.104;2023-02-03T16:21:58;10.40;99.90
11221;DHT22;8517;53.546;10.104;2023-02-03T16:24:41;10.30;99.90
11221;DHT22;8517;53.546;10.104;2023-02-03T16:27:29;10.30;99.90
11221;DHT22;8517;53.546;10.104;2023-02-03T16:30:20;10.30;99.90
11221;DHT22;8517;53.546;10.104;2023-02-03T16:33:14;10.30;99.90
11221;DHT22;8517;53.546;10.104;2023-02-03T16:36:11;10.20;99.90
11221;DHT22;8517;53.546;10.104;2023-02-03T16:38:57;10.20;99.90
11221;DHT22;8517;53.546;10.104;2023-02-03T16:41:44;10.20;99.90
11221;DHT22;8517;53.546;10.104;2023-02-03T16:44:35;10.20;99.90
11221;DHT22;8517;53.546;10.104;2023-02-03T16:47:26;10.10;99.90
11221;DHT22;8517;53.546;10.104;2023-02-03T16:50:12;10.00;99.90
11221;DHT22;8517;53.546;10.104;2023-02-03T16:52:56;10.00;99.90
11221;DHT22;8517;53.546;10.104;2023-02-03T16:55:23;9.90;99.90
11221;DHT22;8517;53.546;10.104;2023-02-03T16:57:50;9.80;99.90
11221;DHT22;8517;53.546;10.104;2023-02-03T17:00:18;9.80;99.90
11221;DHT22;8517;53.546;10.104;2023-02-03T17:02:47;9.70;99.90
11221;DHT22;8517;53.546;10.104;2023-02-03T17:05:15;9.70;99.90